sensor_id;sensor_type;location;lat;lon;timestamp;pressure;altitude;pressure_sealevel;temperature;humidity
77889;BME280;67082;41.704;44.768;2023-03-20T00:02:22;95210.38;;;13.80;70.59
77889;BME280;67082;41.704;44.768;2023-03-20T00:04:51;95193.13;;;13.62;71.25
77889;BME280;67082;41.704;44.768;2023-03-20T00:07:19;95220.25;;;13.81;71.24
77889;BME280;67082;41.704;44.768;2023-03-20T00:09:47;95209.13;;;13.81;71.54
77889;BME280;67082;41.704;44.768;2023-03-20T00:12:21;95216.00;;;13.86;71.10
77889;BME280;67082;41.704;44.768;2023-03-20T00:14:50;95210.91;;;13.84;70.96
77889;BME280;67082;41.704;44.768;2023-03-20T00:17:20;95206.19;;;13.90;70.96
77889;BME280;67082;41.704;44.768;2023-03-20T00:19:48;95211.75;;;13.90;70.76
77889;BME280;67082;41.704;44.768;2023-03-20T00:22:16;95196.34;;;13.75;71.32
77889;BME280;67082;41.704;44.768;2023-03-20T00:24:44;95193.78;;;13.71;71.27
77889;BME280;67082;41.704;44.768;2023-03-20T00:27:14;95199.75;;;13.64;72.00
77889;BME280;67082;41.704;44.768;2023-03-20T00:29:43;95195.72;;;13.65;71.47
77889;BME280;67082;41.704;44.768;2023-03-20T00:32:12;95198.25;;;13.83;70.98
77889;BME280;67082;41.704;44.768;2023-03-20T00:34:40;95201.88;;;13.89;71.37
77889;BME280;67082;41.704;44.768;2023-03-20T00:37:09;95187.94;;;13.89;71.38
77889;BME280;67082;41.704;44.768;2023-03-20T00:39:41;95205.34;;;13.84;71.82
77889;BME280;67082;41.704;44.768;2023-03-20T00:42:18;95187.69;;;13.87;72.07
77889;BME280;67082;41.704;44.768;2023-03-20T00:44:53;95200.19;;;13.77;71.46
77889;BME280;67082;41.704;44.768;2023-03-20T00:47:25;95193.16;;;13.82;71.77
77889;BME280;67082;41.704;44.768;2023-03-20T00:49:54;95201.72;;;13.78;71.89
77889;BME280;67082;41.704;44.768;2023-03-20T00:52:23;95190.63;;;13.64;72.45
77889;BME280;67082;41.704;44.768;2023-03-20T00:54:51;95198.56;;;13.71;72.31
77889;BME280;67082;41.704;44.768;2023-03-20T00:57:38;95193.00;;;13.71;72.05
77889;BME280;67082;41.704;44.768;2023-03-20T01:00:25;95191.94;;;13.68;72.59
77889;BME280;67082;41.704;44.768;2023-03-20T01:02:56;95196.75;;;13.68;72.36
77889;BME280;67082;41.704;44.768;2023-03-20T01:05:26;95194.72;;;13.68;72.66
77889;BME280;67082;41.704;44.768;2023-03-20T01:07:55;95186.97;;;13.58;73.08
77889;BME280;67082;41.704;44.768;2023-03-20T01:10:27;95180.94;;;13.59;73.39
77889;BME280;67082;41.704;44.768;2023-03-20T01:12:59;95181.88;;;13.56;73.11
77889;BME280;67082;41.704;44.768;2023-03-20T01:15:32;95178.97;;;13.80;73.67
77889;BME280;67082;41.704;44.768;2023-03-20T01:18:01;95182.91;;;13.73;72.88
77889;BME280;67082;41.704;44.768;2023-03-20T01:20:29;95171.59;;;13.62;73.40
77889;BME280;67082;41.704;44.768;2023-03-20T01:22:58;95172.44;;;13.68;73.04
77889;BME280;67082;41.704;44.768;2023-03-20T01:25:27;95181.28;;;13.81;72.94
77889;BME280;67082;41.704;44.768;2023-03-20T01:27:55;95172.63;;;13.79;72.12
77889;BME280;67082;41.704;44.768;2023-03-20T01:30:28;95179.44;;;13.78;72.93
77889;BME280;67082;41.704;44.768;2023-03-20T01:32:58;95164.66;;;13.72;72.78
77889;BME280;67082;41.704;44.768;2023-03-20T01:35:29;95173.31;;;13.74;73.05
77889;BME280;67082;41.704;44.768;2023-03-20T01:38:09;95167.13;;;13.50;74.05
77889;BME280;67082;41.704;44.768;2023-03-20T01:43:15;95170.97;;;13.53;74.20
77889;BME280;67082;41.704;44.768;2023-03-20T01:51:26;95163.91;;;13.37;74.84
77889;BME280;67082;41.704;44.768;2023-03-20T01:54:06;95155.81;;;13.39;74.49
77889;BME280;67082;41.704;44.768;2023-03-20T01:57:01;95163.13;;;13.37;74.87
77889;BME280;67082;41.704;44.768;2023-03-20T01:59:37;95160.84;;;13.35;74.76
77889;BME280;67082;41.704;44.768;2023-03-20T02:02:08;95158.06;;;13.21;76.18
77889;BME280;67082;41.704;44.768;2023-03-20T02:04:41;95156.78;;;13.36;74.83
77889;BME280;67082;41.704;44.768;2023-03-20T02:07:16;95150.09;;;13.28;75.85
77889;BME280;67082;41.704;44.768;2023-03-20T02:09:55;95152.31;;;13.24;75.44
77889;BME280;67082;41.704;44.768;2023-03-20T02:12:35;95150.97;;;13.34;75.88
77889;BME280;67082;41.704;44.768;2023-03-20T02:15:05;95151.06;;;13.25;76.06
77889;BME280;67082;41.704;44.768;2023-03-20T02:17:49;95146.41;;;13.37;76.20
77889;BME280;67082;41.704;44.768;2023-03-20T02:20:21;95149.41;;;13.33;75.71
77889;BME280;67082;41.704;44.768;2023-03-20T02:26:13;95141.41;;;13.06;77.80
77889;BME280;67082;41.704;44.768;2023-03-20T02:28:56;95142.53;;;13.14;77.25
77889;BME280;67082;41.704;44.768;2023-03-20T02:31:51;95139.16;;;13.10;77.19
77889;BME280;67082;41.704;44.768;2023-03-20T02:40:05;95125.97;;;13.05;75.89
77889;BME280;67082;41.704;44.768;2023-03-20T02:43:22;95144.63;;;13.19;75.62
77889;BME280;67082;41.704;44.768;2023-03-20T02:48:57;95137.38;;;13.07;76.68
77889;BME280;67082;41.704;44.768;2023-03-20T02:57:15;95145.69;;;12.93;74.79
77889;BME280;67082;41.704;44.768;2023-03-20T03:00:00;95147.88;;;12.89;72.38
77889;BME280;67082;41.704;44.768;2023-03-20T03:05:48;95140.31;;;12.75;73.59
77889;BME280;67082;41.704;44.768;2023-03-20T03:08:20;95154.03;;;12.64;72.67
77889;BME280;67082;41.704;44.768;2023-03-20T03:10:54;95154.22;;;12.60;72.19
77889;BME280;67082;41.704;44.768;2023-03-20T03:13:28;95152.69;;;12.59;71.54
77889;BME280;67082;41.704;44.768;2023-03-20T03:16:00;95155.16;;;12.57;72.30
77889;BME280;67082;41.704;44.768;2023-03-20T03:18:33;95144.78;;;12.43;72.14
77889;BME280;67082;41.704;44.768;2023-03-20T03:21:04;95157.06;;;12.51;71.82
77889;BME280;67082;41.704;44.768;2023-03-20T03:23:47;95159.25;;;12.47;72.26
77889;BME280;67082;41.704;44.768;2023-03-20T03:26:23;95175.34;;;12.43;72.09
77889;BME280;67082;41.704;44.768;2023-03-20T03:28:58;95185.41;;;12.41;71.90
77889;BME280;67082;41.704;44.768;2023-03-20T03:31:29;95176.38;;;12.31;72.43
77889;BME280;67082;41.704;44.768;2023-03-20T03:34:00;95169.47;;;12.27;72.77
77889;BME280;67082;41.704;44.768;2023-03-20T03:45:00;95193.13;;;12.22;71.28
77889;BME280;67082;41.704;44.768;2023-03-20T03:47:35;95198.19;;;12.24;71.36
77889;BME280;67082;41.704;44.768;2023-03-20T03:50:16;95206.34;;;12.27;71.76
77889;BME280;67082;41.704;44.768;2023-03-20T03:52:48;95205.75;;;12.23;72.31
77889;BME280;67082;41.704;44.768;2023-03-20T03:55:21;95202.09;;;12.17;72.22
77889;BME280;67082;41.704;44.768;2023-03-20T03:58:05;95207.97;;;12.19;71.96
77889;BME280;67082;41.704;44.768;2023-03-20T04:00:37;95213.47;;;12.05;72.61
77889;BME280;67082;41.704;44.768;2023-03-20T04:03:08;95213.56;;;12.10;73.32
77889;BME280;67082;41.704;44.768;2023-03-20T04:05:40;95214.28;;;11.96;73.34
77889;BME280;67082;41.704;44.768;2023-03-20T04:08:10;95226.59;;;11.95;72.99
77889;BME280;67082;41.704;44.768;2023-03-20T04:10:40;95217.34;;;11.98;72.60
77889;BME280;67082;41.704;44.768;2023-03-20T04:13:08;95218.94;;;11.90;74.46
77889;BME280;67082;41.704;44.768;2023-03-20T04:15:38;95229.44;;;11.86;75.05
77889;BME280;67082;41.704;44.768;2023-03-20T04:18:14;95221.88;;;11.87;75.24
77889;BME280;67082;41.704;44.768;2023-03-20T04:20:45;95226.81;;;11.59;75.86
77889;BME280;67082;41.704;44.768;2023-03-20T04:23:15;95236.91;;;11.71;75.97
77889;BME280;67082;41.704;44.768;2023-03-20T04:25:44;95217.38;;;11.66;76.24
77889;BME280;67082;41.704;44.768;2023-03-20T04:28:12;95229.88;;;11.52;76.51
77889;BME280;67082;41.704;44.768;2023-03-20T04:30:58;95229.28;;;11.48;75.87
77889;BME280;67082;41.704;44.768;2023-03-20T04:33:45;95241.59;;;11.56;75.78
77889;BME280;67082;41.704;44.768;2023-03-20T04:36:14;95230.09;;;11.40;76.61
77889;BME280;67082;41.704;44.768;2023-03-20T04:38:42;95233.00;;;11.45;78.26
77889;BME280;67082;41.704;44.768;2023-03-20T04:41:10;95244.28;;;11.33;76.24
77889;BME280;67082;41.704;44.768;2023-03-20T04:43:39;95242.13;;;11.37;75.37
77889;BME280;67082;41.704;44.768;2023-03-20T04:46:07;95221.59;;;11.43;74.99
77889;BME280;67082;41.704;44.768;2023-03-20T04:48:37;95251.09;;;11.23;75.69
77889;BME280;67082;41.704;44.768;2023-03-20T04:51:05;95238.78;;;11.15;75.73
77889;BME280;67082;41.704;44.768;2023-03-20T04:53:53;95246.25;;;11.41;74.75
77889;BME280;67082;41.704;44.768;2023-03-20T04:56:22;95249.66;;;11.45;74.53
77889;BME280;67082;41.704;44.768;2023-03-20T04:58:51;95255.78;;;11.49;72.67
77889;BME280;67082;41.704;44.768;2023-03-20T05:01:21;95246.59;;;11.34;72.80
77889;BME280;67082;41.704;44.768;2023-03-20T05:03:50;95261.72;;;11.33;73.03
77889;BME280;67082;41.704;44.768;2023-03-20T05:06:19;95262.34;;;11.28;73.65
77889;BME280;67082;41.704;44.768;2023-03-20T05:08:48;95264.31;;;11.37;73.11
77889;BME280;67082;41.704;44.768;2023-03-20T05:11:17;95266.59;;;11.47;74.09
77889;BME280;67082;41.704;44.768;2023-03-20T05:14:15;95276.78;;;11.41;73.06
77889;BME280;67082;41.704;44.768;2023-03-20T05:17:05;95270.50;;;11.32;73.67
77889;BME280;67082;41.704;44.768;2023-03-20T05:19:46;95279.28;;;11.30;73.24
77889;BME280;67082;41.704;44.768;2023-03-20T05:22:33;95291.09;;;11.40;73.46
77889;BME280;67082;41.704;44.768;2023-03-20T05:25:14;95285.88;;;11.42;73.55
77889;BME280;67082;41.704;44.768;2023-03-20T05:28:21;95293.44;;;11.41;73.60
77889;BME280;67082;41.704;44.768;2023-03-20T05:31:10;95301.13;;;11.37;74.49
77889;BME280;67082;41.704;44.768;2023-03-20T05:34:02;95307.16;;;11.27;74.18
77889;BME280;67082;41.704;44.768;2023-03-20T05:36:55;95309.53;;;11.10;75.58
77889;BME280;67082;41.704;44.768;2023-03-20T05:39:43;95323.53;;;11.07;73.56
77889;BME280;67082;41.704;44.768;2023-03-20T05:42:36;95330.63;;;11.08;73.13
77889;BME280;67082;41.704;44.768;2023-03-20T05:45:18;95319.53;;;10.99;74.14
77889;BME280;67082;41.704;44.768;2023-03-20T05:48:16;95329.34;;;11.27;73.04
77889;BME280;67082;41.704;44.768;2023-03-20T05:50:53;95326.00;;;11.05;70.36
77889;BME280;67082;41.704;44.768;2023-03-20T05:53:45;95321.06;;;11.00;71.83
77889;BME280;67082;41.704;44.768;2023-03-20T05:56:35;95326.78;;;11.05;71.35
77889;BME280;67082;41.704;44.768;2023-03-20T05:59:20;95328.00;;;11.04;70.12
77889;BME280;67082;41.704;44.768;2023-03-20T06:02:07;95328.28;;;11.15;69.33
77889;BME280;67082;41.704;44.768;2023-03-20T06:04:39;95328.91;;;11.19;69.44
77889;BME280;67082;41.704;44.768;2023-03-20T06:07:23;95340.28;;;11.30;70.10
77889;BME280;67082;41.704;44.768;2023-03-20T06:10:13;95339.06;;;11.31;69.56
77889;BME280;67082;41.704;44.768;2023-03-20T06:12:41;95333.78;;;11.51;70.21
77889;BME280;67082;41.704;44.768;2023-03-20T06:15:11;95333.31;;;11.62;69.52
77889;BME280;67082;41.704;44.768;2023-03-20T06:17:43;95341.13;;;11.72;70.77
77889;BME280;67082;41.704;44.768;2023-03-20T06:20:13;95334.84;;;11.72;70.52
77889;BME280;67082;41.704;44.768;2023-03-20T06:22:42;95342.09;;;11.69;70.30
77889;BME280;67082;41.704;44.768;2023-03-20T06:25:11;95326.97;;;11.70;70.10
77889;BME280;67082;41.704;44.768;2023-03-20T06:27:43;95345.78;;;11.75;70.57
77889;BME280;67082;41.704;44.768;2023-03-20T06:30:13;95339.94;;;11.73;71.08
77889;BME280;67082;41.704;44.768;2023-03-20T06:32:43;95341.13;;;11.81;70.46
77889;BME280;67082;41.704;44.768;2023-03-20T06:35:12;95338.06;;;11.79;71.49
77889;BME280;67082;41.704;44.768;2023-03-20T06:37:44;95341.47;;;11.74;71.30
77889;BME280;67082;41.704;44.768;2023-03-20T06:40:18;95332.22;;;11.68;70.96
77889;BME280;67082;41.704;44.768;2023-03-20T06:42:48;95340.59;;;11.92;71.82
77889;BME280;67082;41.704;44.768;2023-03-20T06:45:18;95344.97;;;11.84;71.60
77889;BME280;67082;41.704;44.768;2023-03-20T06:47:52;95337.88;;;11.83;70.74
77889;BME280;67082;41.704;44.768;2023-03-20T06:50:21;95341.56;;;11.89;70.25
77889;BME280;67082;41.704;44.768;2023-03-20T06:52:49;95342.00;;;11.96;69.72
77889;BME280;67082;41.704;44.768;2023-03-20T06:55:36;95352.22;;;11.81;69.78
77889;BME280;67082;41.704;44.768;2023-03-20T06:58:05;95351.16;;;11.70;70.72
77889;BME280;67082;41.704;44.768;2023-03-20T07:00:35;95343.56;;;11.88;70.17
77889;BME280;67082;41.704;44.768;2023-03-20T07:03:06;95360.31;;;12.03;69.10
77889;BME280;67082;41.704;44.768;2023-03-20T07:05:35;95350.63;;;11.98;68.90
77889;BME280;67082;41.704;44.768;2023-03-20T07:08:06;95350.88;;;12.09;69.67
77889;BME280;67082;41.704;44.768;2023-03-20T07:10:35;95356.25;;;12.13;67.82
77889;BME280;67082;41.704;44.768;2023-03-20T07:13:03;95360.63;;;12.05;68.05
77889;BME280;67082;41.704;44.768;2023-03-20T07:15:32;95348.09;;;12.09;68.56
77889;BME280;67082;41.704;44.768;2023-03-20T07:18:01;95359.38;;;12.38;68.64
77889;BME280;67082;41.704;44.768;2023-03-20T07:20:30;95361.22;;;12.41;68.01
77889;BME280;67082;41.704;44.768;2023-03-20T07:22:58;95365.94;;;12.26;68.81
77889;BME280;67082;41.704;44.768;2023-03-20T07:25:28;95356.69;;;12.20;69.16
77889;BME280;67082;41.704;44.768;2023-03-20T07:28:11;95375.16;;;12.32;68.38
77889;BME280;67082;41.704;44.768;2023-03-20T07:30:43;95359.66;;;12.40;67.89
77889;BME280;67082;41.704;44.768;2023-03-20T07:33:15;95371.16;;;12.24;68.57
77889;BME280;67082;41.704;44.768;2023-03-20T07:35:45;95363.78;;;12.21;68.47
77889;BME280;67082;41.704;44.768;2023-03-20T07:38:13;95371.03;;;12.28;68.88
77889;BME280;67082;41.704;44.768;2023-03-20T07:40:52;95370.31;;;12.09;69.42
77889;BME280;67082;41.704;44.768;2023-03-20T07:43:20;95375.81;;;12.18;69.88
77889;BME280;67082;41.704;44.768;2023-03-20T07:46:15;95377.97;;;12.23;70.10
77889;BME280;67082;41.704;44.768;2023-03-20T07:48:43;95366.84;;;12.23;69.41
77889;BME280;67082;41.704;44.768;2023-03-20T07:51:12;95378.84;;;12.38;69.23
77889;BME280;67082;41.704;44.768;2023-03-20T07:53:40;95374.00;;;12.48;69.01
77889;BME280;67082;41.704;44.768;2023-03-20T07:56:10;95377.31;;;12.37;68.74
77889;BME280;67082;41.704;44.768;2023-03-20T07:58:38;95374.53;;;12.61;68.05
77889;BME280;67082;41.704;44.768;2023-03-20T08:01:07;95366.50;;;12.63;68.23
77889;BME280;67082;41.704;44.768;2023-03-20T08:03:35;95370.56;;;12.76;66.60
77889;BME280;67082;41.704;44.768;2023-03-20T08:06:06;95381.47;;;12.65;67.84
77889;BME280;67082;41.704;44.768;2023-03-20T08:08:37;95371.69;;;12.93;66.22
77889;BME280;67082;41.704;44.768;2023-03-20T08:11:05;95379.31;;;12.84;65.65
77889;BME280;67082;41.704;44.768;2023-03-20T08:13:33;95375.31;;;13.08;62.44
77889;BME280;67082;41.704;44.768;2023-03-20T08:16:02;95379.53;;;13.04;63.80
77889;BME280;67082;41.704;44.768;2023-03-20T08:18:31;95373.63;;;13.25;64.23
77889;BME280;67082;41.704;44.768;2023-03-20T08:20:59;95366.53;;;13.24;62.74
77889;BME280;67082;41.704;44.768;2023-03-20T08:23:27;95373.63;;;13.25;63.83
77889;BME280;67082;41.704;44.768;2023-03-20T08:25:55;95381.72;;;13.38;64.97
77889;BME280;67082;41.704;44.768;2023-03-20T08:28:24;95379.56;;;13.18;64.89
77889;BME280;67082;41.704;44.768;2023-03-20T08:31:13;95383.22;;;13.24;64.06
77889;BME280;67082;41.704;44.768;2023-03-20T08:33:41;95377.28;;;13.31;63.03
77889;BME280;67082;41.704;44.768;2023-03-20T08:36:09;95386.59;;;13.28;64.41
77889;BME280;67082;41.704;44.768;2023-03-20T08:38:38;95374.78;;;13.33;64.53
77889;BME280;67082;41.704;44.768;2023-03-20T08:41:06;95383.00;;;13.13;64.81
77889;BME280;67082;41.704;44.768;2023-03-20T08:43:34;95383.50;;;13.26;65.66
77889;BME280;67082;41.704;44.768;2023-03-20T08:46:03;95383.22;;;13.24;62.89
77889;BME280;67082;41.704;44.768;2023-03-20T08:48:33;95373.03;;;13.21;63.03
77889;BME280;67082;41.704;44.768;2023-03-20T08:51:02;95395.06;;;13.10;63.07
77889;BME280;67082;41.704;44.768;2023-03-20T08:53:30;95384.72;;;13.11;64.84
77889;BME280;67082;41.704;44.768;2023-03-20T08:55:58;95385.66;;;13.08;64.77
77889;BME280;67082;41.704;44.768;2023-03-20T08:58:26;95386.84;;;13.16;64.38
77889;BME280;67082;41.704;44.768;2023-03-20T09:00:54;95376.47;;;13.16;63.95
77889;BME280;67082;41.704;44.768;2023-03-20T09:03:23;95379.19;;;13.25;63.91
77889;BME280;67082;41.704;44.768;2023-03-20T09:05:52;95389.50;;;13.10;64.70
77889;BME280;67082;41.704;44.768;2023-03-20T09:08:20;95361.47;;;12.99;64.92
77889;BME280;67082;41.704;44.768;2023-03-20T09:10:48;95388.78;;;13.24;65.70
77889;BME280;67082;41.704;44.768;2023-03-20T09:13:19;95384.06;;;13.16;66.22
77889;BME280;67082;41.704;44.768;2023-03-20T09:15:55;95392.72;;;12.94;66.06
77889;BME280;67082;41.704;44.768;2023-03-20T09:18:24;95396.97;;;13.04;65.13
77889;BME280;67082;41.704;44.768;2023-03-20T09:20:52;95396.59;;;12.97;65.59
77889;BME280;67082;41.704;44.768;2023-03-20T09:23:23;95397.63;;;12.99;65.80
77889;BME280;67082;41.704;44.768;2023-03-20T09:25:52;95396.44;;;13.15;65.71
77889;BME280;67082;41.704;44.768;2023-03-20T09:28:19;95387.09;;;13.03;64.92
77889;BME280;67082;41.704;44.768;2023-03-20T09:30:48;95391.59;;;13.01;66.41
77889;BME280;67082;41.704;44.768;2023-03-20T09:33:16;95380.03;;;12.93;66.40
77889;BME280;67082;41.704;44.768;2023-03-20T09:35:45;95385.88;;;13.19;66.31
77889;BME280;67082;41.704;44.768;2023-03-20T09:38:14;95397.63;;;12.99;67.14
77889;BME280;67082;41.704;44.768;2023-03-20T09:40:54;95396.84;;;12.75;68.31
77889;BME280;67082;41.704;44.768;2023-03-20T09:51:52;95403.28;;;12.81;68.58
77889;BME280;67082;41.704;44.768;2023-03-20T09:54:27;95390.81;;;12.77;67.32
77889;BME280;67082;41.704;44.768;2023-03-20T09:57:02;95392.28;;;12.87;67.66
77889;BME280;67082;41.704;44.768;2023-03-20T09:59:33;95394.91;;;12.90;68.25
77889;BME280;67082;41.704;44.768;2023-03-20T10:02:35;95408.66;;;12.85;67.82
77889;BME280;67082;41.704;44.768;2023-03-20T10:05:16;95377.09;;;12.73;67.68
77889;BME280;67082;41.704;44.768;2023-03-20T10:07:45;95390.09;;;12.67;66.39
77889;BME280;67082;41.704;44.768;2023-03-20T10:10:14;95396.88;;;12.90;64.97
77889;BME280;67082;41.704;44.768;2023-03-20T10:12:54;95387.03;;;13.12;66.13
77889;BME280;67082;41.704;44.768;2023-03-20T10:18:25;95388.84;;;13.15;65.93
77889;BME280;67082;41.704;44.768;2023-03-20T10:21:07;95385.53;;;13.26;66.62
77889;BME280;67082;41.704;44.768;2023-03-20T10:24:04;95379.44;;;13.13;65.85
77889;BME280;67082;41.704;44.768;2023-03-20T10:26:35;95386.69;;;13.34;66.29
77889;BME280;67082;41.704;44.768;2023-03-20T10:29:19;95389.81;;;13.12;67.29
77889;BME280;67082;41.704;44.768;2023-03-20T10:32:02;95388.88;;;12.92;67.64
77889;BME280;67082;41.704;44.768;2023-03-20T10:37:58;95383.16;;;12.86;67.38
77889;BME280;67082;41.704;44.768;2023-03-20T10:40:33;95386.72;;;12.87;67.45
77889;BME280;67082;41.704;44.768;2023-03-20T10:43:29;95386.22;;;12.97;66.89
77889;BME280;67082;41.704;44.768;2023-03-20T10:46:13;95386.16;;;13.06;67.37
77889;BME280;67082;41.704;44.768;2023-03-20T10:48:56;95386.94;;;13.21;67.92
77889;BME280;67082;41.704;44.768;2023-03-20T10:51:45;95383.66;;;13.08;67.08
77889;BME280;67082;41.704;44.768;2023-03-20T10:54:26;95389.22;;;13.08;66.51
77889;BME280;67082;41.704;44.768;2023-03-20T10:56:59;95390.88;;;12.91;67.49
77889;BME280;67082;41.704;44.768;2023-03-20T10:59:38;95391.16;;;12.93;67.93
77889;BME280;67082;41.704;44.768;2023-03-20T11:02:12;95384.06;;;12.92;67.35
77889;BME280;67082;41.704;44.768;2023-03-20T11:04:41;95392.47;;;13.07;67.60
77889;BME280;67082;41.704;44.768;2023-03-20T11:07:22;95386.84;;;13.16;67.80
77889;BME280;67082;41.704;44.768;2023-03-20T11:10:14;95382.63;;;13.20;67.04
77889;BME280;67082;41.704;44.768;2023-03-20T11:12:48;95379.72;;;13.00;66.27
77889;BME280;67082;41.704;44.768;2023-03-20T11:15:30;95381.47;;;13.12;67.38
77889;BME280;67082;41.704;44.768;2023-03-20T11:18:01;95379.25;;;13.16;68.18
77889;BME280;67082;41.704;44.768;2023-03-20T11:20:37;95375.75;;;13.30;68.07
77889;BME280;67082;41.704;44.768;2023-03-20T11:23:06;95391.13;;;13.26;68.63
77889;BME280;67082;41.704;44.768;2023-03-20T11:25:47;95384.16;;;13.21;68.53
77889;BME280;67082;41.704;44.768;2023-03-20T11:28:40;95381.91;;;13.34;67.10
77889;BME280;67082;41.704;44.768;2023-03-20T11:33:45;95386.19;;;13.21;67.64
77889;BME280;67082;41.704;44.768;2023-03-20T11:36:25;95389.53;;;13.25;68.91
77889;BME280;67082;41.704;44.768;2023-03-20T11:39:04;95387.84;;;13.27;69.03
77889;BME280;67082;41.704;44.768;2023-03-20T11:41:33;95388.78;;;13.24;68.23
77889;BME280;67082;41.704;44.768;2023-03-20T11:44:01;95375.41;;;13.14;68.27
77889;BME280;67082;41.704;44.768;2023-03-20T11:46:29;95390.63;;;13.27;67.37
77889;BME280;67082;41.704;44.768;2023-03-20T11:49:18;95379.28;;;13.31;68.07
77889;BME280;67082;41.704;44.768;2023-03-20T11:51:47;95382.63;;;13.20;65.96
77889;BME280;67082;41.704;44.768;2023-03-20T11:54:21;95371.28;;;13.09;65.89
77889;BME280;67082;41.704;44.768;2023-03-20T11:56:53;95389.97;;;12.85;66.59
77889;BME280;67082;41.704;44.768;2023-03-20T11:59:29;95381.63;;;12.85;66.03
77889;BME280;67082;41.704;44.768;2023-03-20T12:02:00;95395.53;;;12.85;66.73
77889;BME280;67082;41.704;44.768;2023-03-20T12:04:30;95390.88;;;12.91;65.93
77889;BME280;67082;41.704;44.768;2023-03-20T12:07:18;95397.19;;;12.68;67.56
77889;BME280;67082;41.704;44.768;2023-03-20T12:09:53;95390.09;;;12.67;67.43
77889;BME280;67082;41.704;44.768;2023-03-20T12:12:49;95387.03;;;12.65;66.82
77889;BME280;67082;41.704;44.768;2023-03-20T12:15:25;95395.28;;;12.74;67.49
77889;BME280;67082;41.704;44.768;2023-03-20T12:17:58;95396.84;;;12.75;68.21
77889;BME280;67082;41.704;44.768;2023-03-20T12:20:36;95389.50;;;12.63;69.11
77889;BME280;67082;41.704;44.768;2023-03-20T12:23:17;95391.09;;;12.55;68.52
77889;BME280;67082;41.704;44.768;2023-03-20T12:25:59;95394.13;;;12.66;69.35
77889;BME280;67082;41.704;44.768;2023-03-20T12:33:43;95387.25;;;12.53;68.36
77889;BME280;67082;41.704;44.768;2023-03-20T12:36:44;95384.97;;;12.75;68.33
77889;BME280;67082;41.704;44.768;2023-03-20T12:39:19;95387.47;;;12.96;68.11
77889;BME280;67082;41.704;44.768;2023-03-20T12:45:18;95397.06;;;12.86;68.62
77889;BME280;67082;41.704;44.768;2023-03-20T12:58:38;95381.88;;;12.73;67.82
77889;BME280;67082;41.704;44.768;2023-03-20T13:04:00;95386.06;;;12.68;68.32
77889;BME280;67082;41.704;44.768;2023-03-20T13:07:00;95383.38;;;12.59;68.98
77889;BME280;67082;41.704;44.768;2023-03-20T13:12:11;95372.31;;;12.74;68.31
77889;BME280;67082;41.704;44.768;2023-03-20T13:15:06;95381.41;;;12.51;69.75
77889;BME280;67082;41.704;44.768;2023-03-20T13:17:51;95376.56;;;12.28;70.32
77889;BME280;67082;41.704;44.768;2023-03-20T13:20:32;95392.38;;;12.13;70.54
77889;BME280;67082;41.704;44.768;2023-03-20T13:28:27;95370.50;;;12.06;71.55
77889;BME280;67082;41.704;44.768;2023-03-20T13:31:26;95391.31;;;12.01;70.45
77889;BME280;67082;41.704;44.768;2023-03-20T13:34:07;95384.38;;;12.06;71.48
77889;BME280;67082;41.704;44.768;2023-03-20T13:39:30;95393.06;;;12.31;71.14
77889;BME280;67082;41.704;44.768;2023-03-20T13:42:07;95387.81;;;12.33;71.22
77889;BME280;67082;41.704;44.768;2023-03-20T13:44:40;95383.75;;;12.43;71.77
77889;BME280;67082;41.704;44.768;2023-03-20T13:47:28;95390.97;;;12.50;71.64
77889;BME280;67082;41.704;44.768;2023-03-20T13:49:58;95395.47;;;12.71;71.44
77889;BME280;67082;41.704;44.768;2023-03-20T13:52:36;95389.81;;;12.65;71.50
77889;BME280;67082;41.704;44.768;2023-03-20T13:55:15;95367.63;;;12.56;70.85
77889;BME280;67082;41.704;44.768;2023-03-20T13:58:36;95394.38;;;12.77;70.73
77889;BME280;67082;41.704;44.768;2023-03-20T14:00:58;95391.41;;;12.81;69.92
77889;BME280;67082;41.704;44.768;2023-03-20T14:03:32;95388.22;;;12.73;69.68
77889;BME280;67082;41.704;44.768;2023-03-20T14:08:58;95396.44;;;12.68;69.15
77889;BME280;67082;41.704;44.768;2023-03-20T14:11:29;95386.34;;;12.70;68.82
77889;BME280;67082;41.704;44.768;2023-03-20T14:14:10;95386.59;;;12.81;68.57
77889;BME280;67082;41.704;44.768;2023-03-20T14:16:41;95385.44;;;12.73;68.42
77889;BME280;67082;41.704;44.768;2023-03-20T14:19:20;95384.59;;;12.82;68.05
77889;BME280;67082;41.704;44.768;2023-03-20T14:21:54;95378.38;;;12.87;68.42
77889;BME280;67082;41.704;44.768;2023-03-20T14:24:25;95382.19;;;12.98;68.12
77889;BME280;67082;41.704;44.768;2023-03-20T14:26:57;95372.03;;;12.95;68.04
77889;BME280;67082;41.704;44.768;2023-03-20T14:34:52;95384.63;;;13.05;68.21
77889;BME280;67082;41.704;44.768;2023-03-20T14:38:01;95382.41;;;13.09;68.31
77889;BME280;67082;41.704;44.768;2023-03-20T14:40:37;95383.72;;;12.99;68.50
77889;BME280;67082;41.704;44.768;2023-03-20T14:43:39;95382.97;;;12.99;68.83
77889;BME280;67082;41.704;44.768;2023-03-20T14:48:52;95388.63;;;13.04;69.10
77889;BME280;67082;41.704;44.768;2023-03-20T14:54:27;95389.03;;;13.12;68.24
77889;BME280;67082;41.704;44.768;2023-03-20T14:57:16;95388.81;;;13.01;66.79
77889;BME280;67082;41.704;44.768;2023-03-20T14:59:48;95395.34;;;12.98;67.51
77889;BME280;67082;41.704;44.768;2023-03-20T15:02:25;95396.66;;;12.55;70.51
77889;BME280;67082;41.704;44.768;2023-03-20T15:04:54;95399.47;;;12.46;71.88
77889;BME280;67082;41.704;44.768;2023-03-20T15:07:26;95398.13;;;12.33;72.29
77889;BME280;67082;41.704;44.768;2023-03-20T15:09:57;95403.28;;;12.25;72.35
77889;BME280;67082;41.704;44.768;2023-03-20T15:12:33;95398.94;;;12.24;72.60
77889;BME280;67082;41.704;44.768;2023-03-20T15:15:07;95397.81;;;12.40;72.05